sensor_id;sensor_type;location;lat;lon;timestamp;P1;durP1;ratioP1;P2;durP2;ratioP2
58109;SDS011;58943;50.168;4.410;2023-11-19T00:00:06;1.55;;;0.70;;
58109;SDS011;58943;50.168;4.410;2023-11-19T00:02:39;1.33;;;0.63;;
58109;SDS011;58943;50.168;4.410;2023-11-19T00:05:06;2.30;;;0.77;;
58109;SDS011;58943;50.168;4.410;2023-11-19T00:07:36;2.05;;;0.60;;
58109;SDS011;58943;50.168;4.410;2023-11-19T00:10:13;1.00;;;0.60;;
58109;SDS011;58943;50.168;4.410;2023-11-19T00:12:42;1.45;;;0.60;;
58109;SDS011;58943;50.168;4.410;2023-11-19T00:15:09;1.58;;;0.60;;
58109;SDS011;58943;50.168;4.410;2023-11-19T00:17:39;1.05;;;0.75;;
58109;SDS011;58943;50.168;4.410;2023-11-19T00:20:07;2.50;;;0.80;;
58109;SDS011;58943;50.168;4.410;2023-11-19T00:22:34;1.23;;;0.70;;
58109;SDS011;58943;50.168;4.410;2023-11-19T00:25:00;1.60;;;0.57;;
58109;SDS011;58943;50.168;4.410;2023-11-19T00:27:27;1.50;;;0.65;;
58109;SDS011;58943;50.168;4.410;2023-11-19T00:29:53;1.50;;;0.68;;
58109;SDS011;58943;50.168;4.410;2023-11-19T00:32:20;2.72;;;0.80;;
58109;SDS011;58943;50.168;4.410;2023-11-19T00:34:46;5.80;;;1.00;;
58109;SDS011;58943;50.168;4.410;2023-11-19T00:37:13;1.10;;;0.70;;
58109;SDS011;58943;50.168;4.410;2023-11-19T00:39:40;2.30;;;0.80;;
58109;SDS011;58943;50.168;4.410;2023-11-19T00:42:07;3.40;;;0.68;;
58109;SDS011;58943;50.168;4.410;2023-11-19T00:44:35;1.85;;;1.08;;
58109;SDS011;58943;50.168;4.410;2023-11-19T00:47:01;6.35;;;1.35;;
58109;SDS011;58943;50.168;4.410;2023-11-19T00:49:28;1.70;;;0.75;;
58109;SDS011;58943;50.168;4.410;2023-11-19T00:51:54;4.28;;;1.27;;
58109;SDS011;58943;50.168;4.410;2023-11-19T00:54:20;4.15;;;1.23;;
58109;SDS011;58943;50.168;4.410;2023-11-19T00:56:50;3.25;;;0.85;;
58109;SDS011;58943;50.168;4.410;2023-11-19T00:59:17;4.75;;;1.60;;
58109;SDS011;58943;50.168;4.410;2023-11-19T01:01:44;2.28;;;0.85;;
58109;SDS011;58943;50.168;4.410;2023-11-19T01:04:10;3.45;;;1.20;;
58109;SDS011;58943;50.168;4.410;2023-11-19T01:06:36;3.75;;;1.13;;
58109;SDS011;58943;50.168;4.410;2023-11-19T01:09:03;3.70;;;1.10;;
58109;SDS011;58943;50.168;4.410;2023-11-19T01:11:29;4.40;;;1.13;;
58109;SDS011;58943;50.168;4.410;2023-11-19T01:13:55;1.98;;;1.00;;
58109;SDS011;58943;50.168;4.410;2023-11-19T01:16:22;2.70;;;0.90;;
58109;SDS011;58943;50.168;4.410;2023-11-19T01:18:48;2.40;;;1.10;;
58109;SDS011;58943;50.168;4.410;2023-11-19T01:21:15;3.50;;;1.30;;
58109;SDS011;58943;50.168;4.410;2023-11-19T01:23:42;5.60;;;1.00;;
58109;SDS011;58943;50.168;4.410;2023-11-19T01:26:11;4.20;;;0.95;;
58109;SDS011;58943;50.168;4.410;2023-11-19T01:28:41;2.78;;;1.17;;
58109;SDS011;58943;50.168;4.410;2023-11-19T01:31:12;6.30;;;1.02;;
58109;SDS011;58943;50.168;4.410;2023-11-19T01:33:40;2.38;;;1.27;;
58109;SDS011;58943;50.168;4.410;2023-11-19T01:36:07;6.53;;;1.45;;
58109;SDS011;58943;50.168;4.410;2023-11-19T01:38:36;2.80;;;1.10;;
58109;SDS011;58943;50.168;4.410;2023-11-19T01:43:32;4.60;;;1.15;;
58109;SDS011;58943;50.168;4.410;2023-11-19T01:45:59;2.40;;;1.00;;
58109;SDS011;58943;50.168;4.410;2023-11-19T01:48:26;4.68;;;1.30;;
58109;SDS011;58943;50.168;4.410;2023-11-19T01:50:53;6.78;;;1.25;;
58109;SDS011;58943;50.168;4.410;2023-11-19T01:53:20;5.35;;;1.17;;
58109;SDS011;58943;50.168;4.410;2023-11-19T01:55:46;4.22;;;1.27;;
58109;SDS011;58943;50.168;4.410;2023-11-19T01:58:13;6.35;;;1.67;;
58109;SDS011;58943;50.168;4.410;2023-11-19T02:00:40;6.13;;;1.17;;
58109;SDS011;58943;50.168;4.410;2023-11-19T02:03:06;17.48;;;2.40;;
58109;SDS011;58943;50.168;4.410;2023-11-19T02:05:33;6.20;;;1.40;;
58109;SDS011;58943;50.168;4.410;2023-11-19T02:08:00;6.32;;;1.63;;
58109;SDS011;58943;50.168;4.410;2023-11-19T02:10:26;7.00;;;1.50;;
58109;SDS011;58943;50.168;4.410;2023-11-19T02:12:53;4.35;;;1.52;;
58109;SDS011;58943;50.168;4.410;2023-11-19T02:15:20;2.92;;;1.20;;
58109;SDS011;58943;50.168;4.410;2023-11-19T02:17:50;5.25;;;1.73;;
58109;SDS011;58943;50.168;4.410;2023-11-19T02:20:17;5.57;;;1.20;;
58109;SDS011;58943;50.168;4.410;2023-11-19T02:22:47;3.22;;;1.20;;
58109;SDS011;58943;50.168;4.410;2023-11-19T02:25:24;3.58;;;1.10;;
58109;SDS011;58943;50.168;4.410;2023-11-19T02:27:55;7.07;;;1.33;;
58109;SDS011;58943;50.168;4.410;2023-11-19T02:30:24;5.97;;;1.40;;
58109;SDS011;58943;50.168;4.410;2023-11-19T02:32:54;3.90;;;1.40;;
58109;SDS011;58943;50.168;4.410;2023-11-19T02:35:24;5.00;;;1.45;;
58109;SDS011;58943;50.168;4.410;2023-11-19T02:37:51;5.90;;;1.40;;
58109;SDS011;58943;50.168;4.410;2023-11-19T02:40:17;6.00;;;1.40;;
58109;SDS011;58943;50.168;4.410;2023-11-19T02:42:43;4.10;;;1.45;;
58109;SDS011;58943;50.168;4.410;2023-11-19T02:45:10;4.47;;;1.52;;
58109;SDS011;58943;50.168;4.410;2023-11-19T02:47:42;3.15;;;1.10;;
58109;SDS011;58943;50.168;4.410;2023-11-19T02:50:09;4.40;;;1.27;;
58109;SDS011;58943;50.168;4.410;2023-11-19T02:52:40;4.47;;;1.50;;
58109;SDS011;58943;50.168;4.410;2023-11-19T02:55:06;3.83;;;1.23;;
58109;SDS011;58943;50.168;4.410;2023-11-19T02:57:40;4.82;;;1.35;;
58109;SDS011;58943;50.168;4.410;2023-11-19T03:00:22;7.40;;;2.25;;
58109;SDS011;58943;50.168;4.410;2023-11-19T03:02:50;3.45;;;1.10;;
58109;SDS011;58943;50.168;4.410;2023-11-19T03:05:24;3.25;;;1.20;;
58109;SDS011;58943;50.168;4.410;2023-11-19T03:07:51;5.30;;;1.75;;
58109;SDS011;58943;50.168;4.410;2023-11-19T03:10:17;6.57;;;1.42;;
58109;SDS011;58943;50.168;4.410;2023-11-19T03:12:44;6.95;;;1.45;;
58109;SDS011;58943;50.168;4.410;2023-11-19T03:15:10;6.85;;;1.40;;
58109;SDS011;58943;50.168;4.410;2023-11-19T03:17:43;9.43;;;1.70;;
58109;SDS011;58943;50.168;4.410;2023-11-19T03:20:10;7.18;;;1.40;;
58109;SDS011;58943;50.168;4.410;2023-11-19T03:22:40;7.80;;;1.83;;
58109;SDS011;58943;50.168;4.410;2023-11-19T03:25:07;8.27;;;1.60;;
58109;SDS011;58943;50.168;4.410;2023-11-19T03:27:37;4.70;;;1.50;;
58109;SDS011;58943;50.168;4.410;2023-11-19T03:30:09;6.07;;;1.33;;
58109;SDS011;58943;50.168;4.410;2023-11-19T03:32:36;8.18;;;1.40;;
58109;SDS011;58943;50.168;4.410;2023-11-19T03:35:04;6.00;;;1.20;;
58109;SDS011;58943;50.168;4.410;2023-11-19T03:37:32;7.63;;;1.27;;
58109;SDS011;58943;50.168;4.410;2023-11-19T03:39:58;5.30;;;1.30;;
58109;SDS011;58943;50.168;4.410;2023-11-19T03:42:25;6.25;;;1.52;;
58109;SDS011;58943;50.168;4.410;2023-11-19T03:44:52;4.53;;;1.20;;
58109;SDS011;58943;50.168;4.410;2023-11-19T03:47:19;6.45;;;1.30;;
58109;SDS011;58943;50.168;4.410;2023-11-19T03:49:48;7.47;;;1.42;;
58109;SDS011;58943;50.168;4.410;2023-11-19T03:52:15;5.88;;;1.50;;
58109;SDS011;58943;50.168;4.410;2023-11-19T03:54:42;5.35;;;1.30;;
58109;SDS011;58943;50.168;4.410;2023-11-19T03:57:08;6.10;;;1.30;;
58109;SDS011;58943;50.168;4.410;2023-11-19T03:59:38;7.80;;;1.50;;
58109;SDS011;58943;50.168;4.410;2023-11-19T04:02:05;4.97;;;1.33;;
58109;SDS011;58943;50.168;4.410;2023-11-19T04:04:31;7.43;;;1.70;;
58109;SDS011;58943;50.168;4.410;2023-11-19T04:06:58;8.45;;;1.33;;
58109;SDS011;58943;50.168;4.410;2023-11-19T04:09:26;11.30;;;1.50;;
58109;SDS011;58943;50.168;4.410;2023-11-19T04:11:52;6.55;;;1.67;;
58109;SDS011;58943;50.168;4.410;2023-11-19T04:14:18;7.72;;;1.48;;
58109;SDS011;58943;50.168;4.410;2023-11-19T04:16:45;5.80;;;1.50;;
58109;SDS011;58943;50.168;4.410;2023-11-19T04:19:11;5.78;;;1.65;;
58109;SDS011;58943;50.168;4.410;2023-11-19T04:21:40;7.28;;;1.77;;
58109;SDS011;58943;50.168;4.410;2023-11-19T04:24:10;4.15;;;1.30;;
58109;SDS011;58943;50.168;4.410;2023-11-19T04:26:40;5.93;;;1.45;;
58109;SDS011;58943;50.168;4.410;2023-11-19T04:29:08;5.57;;;1.65;;
58109;SDS011;58943;50.168;4.410;2023-11-19T04:31:36;8.93;;;1.50;;
58109;SDS011;58943;50.168;4.410;2023-11-19T04:34:02;7.95;;;1.63;;
58109;SDS011;58943;50.168;4.410;2023-11-19T04:36:28;8.35;;;1.77;;
58109;SDS011;58943;50.168;4.410;2023-11-19T04:38:55;5.50;;;1.10;;
58109;SDS011;58943;50.168;4.410;2023-11-19T04:41:21;8.80;;;2.05;;
58109;SDS011;58943;50.168;4.410;2023-11-19T04:43:48;5.43;;;1.20;;
58109;SDS011;58943;50.168;4.410;2023-11-19T04:46:14;7.65;;;1.50;;
58109;SDS011;58943;50.168;4.410;2023-11-19T04:48:41;7.70;;;1.70;;
58109;SDS011;58943;50.168;4.410;2023-11-19T04:51:07;6.90;;;1.50;;
58109;SDS011;58943;50.168;4.410;2023-11-19T04:53:35;10.13;;;1.80;;
58109;SDS011;58943;50.168;4.410;2023-11-19T04:56:01;6.78;;;1.35;;
58109;SDS011;58943;50.168;4.410;2023-11-19T04:58:34;7.22;;;1.67;;
58109;SDS011;58943;50.168;4.410;2023-11-19T05:01:02;8.07;;;1.75;;
58109;SDS011;58943;50.168;4.410;2023-11-19T05:03:29;7.38;;;1.70;;
58109;SDS011;58943;50.168;4.410;2023-11-19T05:05:56;6.03;;;1.52;;
58109;SDS011;58943;50.168;4.410;2023-11-19T05:08:23;6.63;;;1.88;;
58109;SDS011;58943;50.168;4.410;2023-11-19T05:10:49;5.45;;;1.20;;
58109;SDS011;58943;50.168;4.410;2023-11-19T05:13:15;7.70;;;1.80;;
58109;SDS011;58943;50.168;4.410;2023-11-19T05:15:42;4.07;;;1.20;;
58109;SDS011;58943;50.168;4.410;2023-11-19T05:18:08;11.52;;;1.90;;
58109;SDS011;58943;50.168;4.410;2023-11-19T05:20:35;6.60;;;1.80;;
58109;SDS011;58943;50.168;4.410;2023-11-19T05:23:01;5.97;;;1.40;;
58109;SDS011;58943;50.168;4.410;2023-11-19T05:25:27;5.82;;;1.13;;
58109;SDS011;58943;50.168;4.410;2023-11-19T05:27:54;8.93;;;1.85;;
58109;SDS011;58943;50.168;4.410;2023-11-19T05:30:20;7.85;;;1.77;;
58109;SDS011;58943;50.168;4.410;2023-11-19T05:32:46;7.53;;;1.80;;
58109;SDS011;58943;50.168;4.410;2023-11-19T05:35:12;10.27;;;1.95;;
58109;SDS011;58943;50.168;4.410;2023-11-19T05:37:39;9.25;;;2.20;;
58109;SDS011;58943;50.168;4.410;2023-11-19T05:40:05;8.38;;;2.03;;
58109;SDS011;58943;50.168;4.410;2023-11-19T05:42:42;5.50;;;1.50;;
58109;SDS011;58943;50.168;4.410;2023-11-19T05:45:10;9.25;;;1.83;;
58109;SDS011;58943;50.168;4.410;2023-11-19T05:47:37;9.23;;;1.50;;
58109;SDS011;58943;50.168;4.410;2023-11-19T05:50:03;7.13;;;1.70;;
58109;SDS011;58943;50.168;4.410;2023-11-19T05:52:31;5.82;;;1.58;;
58109;SDS011;58943;50.168;4.410;2023-11-19T05:55:01;6.75;;;1.70;;
58109;SDS011;58943;50.168;4.410;2023-11-19T05:57:35;5.68;;;1.42;;
58109;SDS011;58943;50.168;4.410;2023-11-19T06:00:01;8.20;;;1.83;;
58109;SDS011;58943;50.168;4.410;2023-11-19T06:02:34;6.88;;;1.75;;
58109;SDS011;58943;50.168;4.410;2023-11-19T06:05:02;7.07;;;1.77;;
58109;SDS011;58943;50.168;4.410;2023-11-19T06:07:30;7.93;;;1.60;;
58109;SDS011;58943;50.168;4.410;2023-11-19T06:09:57;6.55;;;1.85;;
58109;SDS011;58943;50.168;4.410;2023-11-19T06:12:23;6.45;;;1.55;;
58109;SDS011;58943;50.168;4.410;2023-11-19T06:14:49;8.93;;;1.73;;
58109;SDS011;58943;50.168;4.410;2023-11-19T06:17:16;7.70;;;1.83;;
58109;SDS011;58943;50.168;4.410;2023-11-19T06:19:42;9.02;;;2.00;;
58109;SDS011;58943;50.168;4.410;2023-11-19T06:22:10;8.40;;;1.77;;
58109;SDS011;58943;50.168;4.410;2023-11-19T06:24:36;8.32;;;1.80;;
58109;SDS011;58943;50.168;4.410;2023-11-19T06:27:03;7.47;;;1.95;;
58109;SDS011;58943;50.168;4.410;2023-11-19T06:29:29;5.20;;;1.70;;
58109;SDS011;58943;50.168;4.410;2023-11-19T06:31:56;8.77;;;1.80;;
58109;SDS011;58943;50.168;4.410;2023-11-19T06:34:22;11.57;;;2.35;;
58109;SDS011;58943;50.168;4.410;2023-11-19T06:36:49;9.70;;;2.25;;
58109;SDS011;58943;50.168;4.410;2023-11-19T06:39:15;8.70;;;2.00;;
58109;SDS011;58943;50.168;4.410;2023-11-19T06:41:45;13.77;;;2.45;;
58109;SDS011;58943;50.168;4.410;2023-11-19T06:44:12;9.60;;;1.67;;
58109;SDS011;58943;50.168;4.410;2023-11-19T06:46:39;10.02;;;1.88;;
58109;SDS011;58943;50.168;4.410;2023-11-19T06:49:05;6.05;;;1.80;;
58109;SDS011;58943;50.168;4.410;2023-11-19T06:51:33;9.93;;;1.98;;
58109;SDS011;58943;50.168;4.410;2023-11-19T06:54:00;9.30;;;2.15;;
58109;SDS011;58943;50.168;4.410;2023-11-19T06:56:26;11.60;;;2.40;;
58109;SDS011;58943;50.168;4.410;2023-11-19T06:58:53;8.80;;;2.00;;
58109;SDS011;58943;50.168;4.410;2023-11-19T07:01:19;13.18;;;2.15;;
58109;SDS011;58943;50.168;4.410;2023-11-19T07:03:46;10.27;;;1.80;;
58109;SDS011;58943;50.168;4.410;2023-11-19T07:06:12;8.32;;;2.42;;
58109;SDS011;58943;50.168;4.410;2023-11-19T07:08:41;7.22;;;1.75;;
58109;SDS011;58943;50.168;4.410;2023-11-19T07:11:12;9.05;;;2.35;;
58109;SDS011;58943;50.168;4.410;2023-11-19T07:13:40;6.03;;;2.00;;
58109;SDS011;58943;50.168;4.410;2023-11-19T07:16:07;8.88;;;2.72;;
58109;SDS011;58943;50.168;4.410;2023-11-19T07:18:35;8.85;;;2.22;;
58109;SDS011;58943;50.168;4.410;2023-11-19T07:21:02;8.13;;;1.92;;
58109;SDS011;58943;50.168;4.410;2023-11-19T07:23:28;9.45;;;1.73;;
58109;SDS011;58943;50.168;4.410;2023-11-19T07:25:54;7.80;;;1.77;;
58109;SDS011;58943;50.168;4.410;2023-11-19T07:28:20;12.15;;;2.72;;
58109;SDS011;58943;50.168;4.410;2023-11-19T07:30:48;10.73;;;2.28;;
58109;SDS011;58943;50.168;4.410;2023-11-19T07:33:15;6.60;;;1.77;;
58109;SDS011;58943;50.168;4.410;2023-11-19T07:35:42;12.55;;;3.15;;
58109;SDS011;58943;50.168;4.410;2023-11-19T07:38:09;8.43;;;1.70;;
58109;SDS011;58943;50.168;4.410;2023-11-19T07:40:35;12.90;;;2.92;;
58109;SDS011;58943;50.168;4.410;2023-11-19T07:43:01;8.73;;;2.20;;
58109;SDS011;58943;50.168;4.410;2023-11-19T07:45:28;10.60;;;2.08;;
58109;SDS011;58943;50.168;4.410;2023-11-19T07:47:54;10.75;;;2.00;;
58109;SDS011;58943;50.168;4.410;2023-11-19T07:50:21;9.85;;;1.75;;
58109;SDS011;58943;50.168;4.410;2023-11-19T07:52:47;9.07;;;1.80;;
58109;SDS011;58943;50.168;4.410;2023-11-19T07:55:14;10.02;;;2.17;;
58109;SDS011;58943;50.168;4.410;2023-11-19T07:57:40;11.85;;;2.45;;
58109;SDS011;58943;50.168;4.410;2023-11-19T08:00:06;12.30;;;2.38;;
58109;SDS011;58943;50.168;4.410;2023-11-19T08:02:37;9.77;;;1.70;;
58109;SDS011;58943;50.168;4.410;2023-11-19T08:05:04;9.30;;;1.95;;
58109;SDS011;58943;50.168;4.410;2023-11-19T08:07:31;8.07;;;1.98;;
58109;SDS011;58943;50.168;4.410;2023-11-19T08:09:57;8.32;;;1.88;;
58109;SDS011;58943;50.168;4.410;2023-11-19T08:12:25;11.23;;;2.10;;
58109;SDS011;58943;50.168;4.410;2023-11-19T08:14:51;10.32;;;2.22;;
58109;SDS011;58943;50.168;4.410;2023-11-19T08:17:18;7.60;;;1.75;;
58109;SDS011;58943;50.168;4.410;2023-11-19T08:19:44;10.30;;;1.95;;
58109;SDS011;58943;50.168;4.410;2023-11-19T08:22:11;9.25;;;1.88;;
58109;SDS011;58943;50.168;4.410;2023-11-19T08:24:37;9.63;;;2.38;;
58109;SDS011;58943;50.168;4.410;2023-11-19T08:27:04;7.10;;;2.13;;
58109;SDS011;58943;50.168;4.410;2023-11-19T08:29:30;7.80;;;1.85;;
58109;SDS011;58943;50.168;4.410;2023-11-19T08:31:57;9.48;;;1.92;;
58109;SDS011;58943;50.168;4.410;2023-11-19T08:34:23;11.10;;;2.10;;
58109;SDS011;58943;50.168;4.410;2023-11-19T08:36:50;6.88;;;1.70;;
58109;SDS011;58943;50.168;4.410;2023-11-19T08:39:18;8.85;;;1.80;;
58109;SDS011;58943;50.168;4.410;2023-11-19T08:41:46;11.27;;;2.03;;
58109;SDS011;58943;50.168;4.410;2023-11-19T08:44:13;9.35;;;1.48;;
58109;SDS011;58943;50.168;4.410;2023-11-19T08:46:46;9.65;;;2.30;;
58109;SDS011;58943;50.168;4.410;2023-11-19T08:49:12;8.05;;;1.75;;
58109;SDS011;58943;50.168;4.410;2023-11-19T08:51:38;16.13;;;2.28;;
58109;SDS011;58943;50.168;4.410;2023-11-19T08:54:05;7.70;;;1.80;;
58109;SDS011;58943;50.168;4.410;2023-11-19T08:56:32;10.55;;;1.77;;
58109;SDS011;58943;50.168;4.410;2023-11-19T08:59:00;9.60;;;1.90;;
58109;SDS011;58943;50.168;4.410;2023-11-19T09:01:26;9.85;;;1.75;;
58109;SDS011;58943;50.168;4.410;2023-11-19T09:03:54;12.82;;;2.30;;
58109;SDS011;58943;50.168;4.410;2023-11-19T09:06:20;7.18;;;1.60;;
58109;SDS011;58943;50.168;4.410;2023-11-19T09:08:47;5.32;;;1.70;;
58109;SDS011;58943;50.168;4.410;2023-11-19T09:11:13;7.80;;;2.45;;
58109;SDS011;58943;50.168;4.410;2023-11-19T09:13:40;12.45;;;2.05;;
58109;SDS011;58943;50.168;4.410;2023-11-19T09:16:06;9.13;;;2.28;;
58109;SDS011;58943;50.168;4.410;2023-11-19T09:18:34;7.72;;;1.70;;
58109;SDS011;58943;50.168;4.410;2023-11-19T09:21:01;8.30;;;1.75;;
58109;SDS011;58943;50.168;4.410;2023-11-19T09:23:28;8.20;;;1.77;;
58109;SDS011;58943;50.168;4.410;2023-11-19T09:25:58;8.82;;;1.80;;
58109;SDS011;58943;50.168;4.410;2023-11-19T09:28:25;9.10;;;1.95;;
58109;SDS011;58943;50.168;4.410;2023-11-19T09:30:51;7.72;;;1.60;;
58109;SDS011;58943;50.168;4.410;2023-11-19T09:33:17;9.43;;;1.58;;
58109;SDS011;58943;50.168;4.410;2023-11-19T09:35:44;7.68;;;1.85;;
58109;SDS011;58943;50.168;4.410;2023-11-19T09:38:10;8.35;;;1.52;;
58109;SDS011;58943;50.168;4.410;2023-11-19T09:40:37;7.35;;;1.77;;
58109;SDS011;58943;50.168;4.410;2023-11-19T09:43:04;8.95;;;1.88;;
58109;SDS011;58943;50.168;4.410;2023-11-19T09:45:31;10.82;;;1.73;;
58109;SDS011;58943;50.168;4.410;2023-11-19T09:47:59;6.63;;;1.77;;
58109;SDS011;58943;50.168;4.410;2023-11-19T09:50:27;8.67;;;1.70;;
58109;SDS011;58943;50.168;4.410;2023-11-19T09:52:54;11.30;;;2.05;;
58109;SDS011;58943;50.168;4.410;2023-11-19T09:55:20;10.02;;;1.80;;
58109;SDS011;58943;50.168;4.410;2023-11-19T09:57:47;7.00;;;1.55;;
58109;SDS011;58943;50.168;4.410;2023-11-19T10:00:15;7.57;;;1.55;;
58109;SDS011;58943;50.168;4.410;2023-11-19T10:02:44;6.18;;;1.50;;
58109;SDS011;58943;50.168;4.410;2023-11-19T10:05:13;8.57;;;2.00;;
58109;SDS011;58943;50.168;4.410;2023-11-19T10:07:40;7.22;;;1.67;;
58109;SDS011;58943;50.168;4.410;2023-11-19T10:10:08;7.50;;;1.52;;
58109;SDS011;58943;50.168;4.410;2023-11-19T10:12:36;5.15;;;1.63;;
58109;SDS011;58943;50.168;4.410;2023-11-19T10:15:02;12.55;;;2.40;;
58109;SDS011;58943;50.168;4.410;2023-11-19T10:17:28;7.60;;;1.92;;
58109;SDS011;58943;50.168;4.410;2023-11-19T10:19:55;9.57;;;1.88;;
58109;SDS011;58943;50.168;4.410;2023-11-19T10:22:22;10.18;;;2.50;;
58109;SDS011;58943;50.168;4.410;2023-11-19T10:24:50;11.10;;;2.10;;
58109;SDS011;58943;50.168;4.410;2023-11-19T10:27:16;6.95;;;1.60;;
58109;SDS011;58943;50.168;4.410;2023-11-19T10:29:46;9.20;;;1.67;;
58109;SDS011;58943;50.168;4.410;2023-11-19T10:32:13;8.32;;;2.08;;
58109;SDS011;58943;50.168;4.410;2023-11-19T10:34:42;7.28;;;1.63;;
58109;SDS011;58943;50.168;4.410;2023-11-19T10:37:09;6.10;;;1.95;;
58109;SDS011;58943;50.168;4.410;2023-11-19T10:39:56;6.20;;;1.83;;
58109;SDS011;58943;50.168;4.410;2023-11-19T10:42:22;10.10;;;2.13;;
58109;SDS011;58943;50.168;4.410;2023-11-19T10:44:49;6.38;;;1.73;;
58109;SDS011;58943;50.168;4.410;2023-11-19T10:47:16;10.60;;;1.85;;
58109;SDS011;58943;50.168;4.410;2023-11-19T10:49:45;4.55;;;1.50;;
58109;SDS011;58943;50.168;4.410;2023-11-19T10:52:11;10.00;;;2.35;;
58109;SDS011;58943;50.168;4.410;2023-11-19T10:54:38;7.68;;;1.80;;
58109;SDS011;58943;50.168;4.410;2023-11-19T10:57:07;13.52;;;1.70;;
58109;SDS011;58943;50.168;4.410;2023-11-19T10:59:35;6.60;;;1.75;;
58109;SDS011;58943;50.168;4.410;2023-11-19T11:02:03;8.48;;;1.80;;
58109;SDS011;58943;50.168;4.410;2023-11-19T11:04:33;8.82;;;1.98;;
58109;SDS011;58943;50.168;4.410;2023-11-19T11:07:04;8.13;;;1.77;;
58109;SDS011;58943;50.168;4.410;2023-11-19T11:09:30;9.50;;;1.40;;
58109;SDS011;58943;50.168;4.410;2023-11-19T11:11:58;5.32;;;1.85;;
58109;SDS011;58943;50.168;4.410;2023-11-19T11:14:25;8.15;;;1.70;;
58109;SDS011;58943;50.168;4.410;2023-11-19T11:16:53;9.63;;;2.17;;
58109;SDS011;58943;50.168;4.410;2023-11-19T11:19:19;6.72;;;1.70;;
58109;SDS011;58943;50.168;4.410;2023-11-19T11:21:47;6.03;;;1.58;;
58109;SDS011;58943;50.168;4.410;2023-11-19T11:24:21;10.30;;;2.10;;
58109;SDS011;58943;50.168;4.410;2023-11-19T11:29:37;10.20;;;2.25;;
58109;SDS011;58943;50.168;4.410;2023-11-19T11:39:35;11.80;;;2.05;;
58109;SDS011;58943;50.168;4.410;2023-11-19T11:43:02;7.90;;;2.05;;
58109;SDS011;58943;50.168;4.410;2023-11-19T11:44:58;10.13;;;2.00;;
58109;SDS011;58943;50.168;4.410;2023-11-19T11:47:25;7.90;;;1.52;;
58109;SDS011;58943;50.168;4.410;2023-11-19T11:49:52;10.80;;;1.75;;
58109;SDS011;58943;50.168;4.410;2023-11-19T11:52:18;8.63;;;2.00;;
58109;SDS011;58943;50.168;4.410;2023-11-19T11:54:45;10.32;;;2.10;;
58109;SDS011;58943;50.168;4.410;2023-11-19T11:57:12;11.40;;;1.85;;
58109;SDS011;58943;50.168;4.410;2023-11-19T12:02:08;12.48;;;1.85;;
58109;SDS011;58943;50.168;4.410;2023-11-19T12:04:35;7.47;;;1.88;;
58109;SDS011;58943;50.168;4.410;2023-11-19T12:07:06;9.65;;;1.48;;
58109;SDS011;58943;50.168;4.410;2023-11-19T12:09:33;12.00;;;2.38;;
58109;SDS011;58943;50.168;4.410;2023-11-19T12:17:46;7.28;;;1.88;;
58109;SDS011;58943;50.168;4.410;2023-11-19T12:20:12;7.25;;;1.70;;
58109;SDS011;58943;50.168;4.410;2023-11-19T12:22:39;7.38;;;1.77;;
58109;SDS011;58943;50.168;4.410;2023-11-19T12:25:06;6.90;;;1.75;;
58109;SDS011;58943;50.168;4.410;2023-11-19T12:27:33;11.23;;;2.17;;
58109;SDS011;58943;50.168;4.410;2023-11-19T12:29:59;6.85;;;1.67;;
58109;SDS011;58943;50.168;4.410;2023-11-19T12:32:26;7.50;;;1.50;;
58109;SDS011;58943;50.168;4.410;2023-11-19T12:34:52;7.45;;;1.63;;
58109;SDS011;58943;50.168;4.410;2023-11-19T12:37:18;6.72;;;1.88;;
58109;SDS011;58943;50.168;4.410;2023-11-19T12:39:45;11.25;;;2.00;;
58109;SDS011;58943;50.168;4.410;2023-11-19T12:42:11;9.27;;;1.83;;
58109;SDS011;58943;50.168;4.410;2023-11-19T12:44:38;11.98;;;1.83;;
58109;SDS011;58943;50.168;4.410;2023-11-19T12:47:05;5.65;;;1.50;;
58109;SDS011;58943;50.168;4.410;2023-11-19T12:49:34;7.22;;;1.67;;
58109;SDS011;58943;50.168;4.410;2023-11-19T12:52:01;9.00;;;1.60;;
58109;SDS011;58943;50.168;4.410;2023-11-19T12:54:34;9.70;;;1.60;;
58109;SDS011;58943;50.168;4.410;2023-11-19T12:57:01;11.30;;;1.90;;
58109;SDS011;58943;50.168;4.410;2023-11-19T12:59:27;6.82;;;1.90;;
58109;SDS011;58943;50.168;4.410;2023-11-19T13:01:57;11.38;;;2.25;;
58109;SDS011;58943;50.168;4.410;2023-11-19T13:04:27;6.35;;;2.00;;
58109;SDS011;58943;50.168;4.410;2023-11-19T13:06:54;10.43;;;2.00;;
58109;SDS011;58943;50.168;4.410;2023-11-19T13:09:25;10.87;;;1.77;;
58109;SDS011;58943;50.168;4.410;2023-11-19T13:11:51;11.15;;;2.97;;
58109;SDS011;58943;50.168;4.410;2023-11-19T13:14:18;10.20;;;1.80;;
58109;SDS011;58943;50.168;4.410;2023-11-19T13:16:45;8.10;;;1.65;;
58109;SDS011;58943;50.168;4.410;2023-11-19T13:19:15;7.38;;;2.38;;
58109;SDS011;58943;50.168;4.410;2023-11-19T13:21:45;8.85;;;2.08;;
58109;SDS011;58943;50.168;4.410;2023-11-19T13:24:13;9.32;;;1.98;;
58109;SDS011;58943;50.168;4.410;2023-11-19T13:26:39;8.90;;;2.33;;
58109;SDS011;58943;50.168;4.410;2023-11-19T13:29:06;11.60;;;2.17;;
58109;SDS011;58943;50.168;4.410;2023-11-19T13:31:32;6.70;;;1.92;;
58109;SDS011;58943;50.168;4.410;2023-11-19T13:33:59;7.45;;;1.98;;
58109;SDS011;58943;50.168;4.410;2023-11-19T13:36:25;9.95;;;1.98;;
58109;SDS011;58943;50.168;4.410;2023-11-19T13:38:52;9.80;;;2.20;;
58109;SDS011;58943;50.168;4.410;2023-11-19T13:41:24;8.32;;;1.60;;
58109;SDS011;58943;50.168;4.410;2023-11-19T13:43:51;9.07;;;2.22;;
58109;SDS011;58943;50.168;4.410;2023-11-19T13:46:18;9.00;;;1.50;;
58109;SDS011;58943;50.168;4.410;2023-11-19T13:48:45;9.95;;;1.92;;
58109;SDS011;58943;50.168;4.410;2023-11-19T13:51:11;9.80;;;1.98;;
58109;SDS011;58943;50.168;4.410;2023-11-19T13:53:38;11.60;;;2.60;;
58109;SDS011;58943;50.168;4.410;2023-11-19T13:56:04;9.35;;;1.98;;
58109;SDS011;58943;50.168;4.410;2023-11-19T13:58:31;8.82;;;2.00;;
58109;SDS011;58943;50.168;4.410;2023-11-19T14:00:57;8.57;;;1.77;;
58109;SDS011;58943;50.168;4.410;2023-11-19T14:03:24;7.78;;;1.85;;
58109;SDS011;58943;50.168;4.410;2023-11-19T14:05:50;10.80;;;2.35;;
58109;SDS011;58943;50.168;4.410;2023-11-19T14:08:20;10.90;;;1.90;;
58109;SDS011;58943;50.168;4.410;2023-11-19T14:10:46;8.55;;;2.47;;
58109;SDS011;58943;50.168;4.410;2023-11-19T14:13:13;7.93;;;2.10;;
58109;SDS011;58943;50.168;4.410;2023-11-19T14:15:40;10.05;;;2.30;;
58109;SDS011;58943;50.168;4.410;2023-11-19T14:18:07;6.97;;;1.65;;
58109;SDS011;58943;50.168;4.410;2023-11-19T14:20:34;8.23;;;1.70;;
58109;SDS011;58943;50.168;4.410;2023-11-19T14:23:01;8.27;;;2.33;;
58109;SDS011;58943;50.168;4.410;2023-11-19T14:25:27;8.75;;;1.95;;
58109;SDS011;58943;50.168;4.410;2023-11-19T14:27:54;10.38;;;1.90;;
58109;SDS011;58943;50.168;4.410;2023-11-19T14:30:20;9.40;;;1.88;;
58109;SDS011;58943;50.168;4.410;2023-11-19T14:32:46;7.53;;;1.85;;
58109;SDS011;58943;50.168;4.410;2023-11-19T14:35:13;8.73;;;1.60;;
58109;SDS011;58943;50.168;4.410;2023-11-19T14:37:40;6.22;;;1.58;;
58109;SDS011;58943;50.168;4.410;2023-11-19T14:40:06;9.45;;;1.83;;
58109;SDS011;58943;50.168;4.410;2023-11-19T14:42:36;8.38;;;1.77;;
58109;SDS011;58943;50.168;4.410;2023-11-19T14:45:04;10.82;;;1.90;;
58109;SDS011;58943;50.168;4.410;2023-11-19T14:47:31;11.85;;;1.77;;
58109;SDS011;58943;50.168;4.410;2023-11-19T14:49:57;8.20;;;1.90;;
58109;SDS011;58943;50.168;4.410;2023-11-19T14:52:23;10.15;;;2.53;;
58109;SDS011;58943;50.168;4.410;2023-11-19T14:54:50;9.05;;;2.30;;
58109;SDS011;58943;50.168;4.410;2023-11-19T14:59:45;11.18;;;2.33;;
58109;SDS011;58943;50.168;4.410;2023-11-19T15:02:12;10.27;;;2.08;;
58109;SDS011;58943;50.168;4.410;2023-11-19T15:04:38;9.75;;;2.00;;
58109;SDS011;58943;50.168;4.410;2023-11-19T15:07:06;8.93;;;1.90;;
58109;SDS011;58943;50.168;4.410;2023-11-19T15:09:33;8.15;;;2.20;;